sensor_id;sensor_type;location;lat;lon;timestamp;P1;durP1;ratioP1;P2;durP2;ratioP2
3726;SDS011;1879;45.876;12.300;2022-07-29T00:00:09;6.17;;;5.57;;
3726;SDS011;1879;45.876;12.300;2022-07-29T00:02:36;6.00;;;5.43;;
3726;SDS011;1879;45.876;12.300;2022-07-29T00:05:04;6.40;;;5.90;;
3726;SDS011;1879;45.876;12.300;2022-07-29T00:07:31;7.53;;;5.70;;
3726;SDS011;1879;45.876;12.300;2022-07-29T00:09:58;6.20;;;5.70;;
3726;SDS011;1879;45.876;12.300;2022-07-29T00:12:25;6.27;;;5.77;;
3726;SDS011;1879;45.876;12.300;2022-07-29T00:14:54;6.77;;;6.17;;
3726;SDS011;1879;45.876;12.300;2022-07-29T00:17:22;7.10;;;6.23;;
3726;SDS011;1879;45.876;12.300;2022-07-29T00:19:49;6.47;;;5.93;;
3726;SDS011;1879;45.876;12.300;2022-07-29T00:22:16;6.13;;;5.53;;
3726;SDS011;1879;45.876;12.300;2022-07-29T00:24:43;6.50;;;5.90;;
3726;SDS011;1879;45.876;12.300;2022-07-29T00:27:10;7.20;;;5.97;;
3726;SDS011;1879;45.876;12.300;2022-07-29T00:29:37;6.00;;;5.50;;
3726;SDS011;1879;45.876;12.300;2022-07-29T00:32:06;9.03;;;6.07;;
3726;SDS011;1879;45.876;12.300;2022-07-29T00:34:33;6.40;;;5.90;;
3726;SDS011;1879;45.876;12.300;2022-07-29T00:37:18;6.23;;;5.53;;
3726;SDS011;1879;45.876;12.300;2022-07-29T00:39:45;7.20;;;6.50;;
3726;SDS011;1879;45.876;12.300;2022-07-29T00:42:12;6.70;;;5.93;;
3726;SDS011;1879;45.876;12.300;2022-07-29T00:44:39;5.70;;;5.20;;
3726;SDS011;1879;45.876;12.300;2022-07-29T00:47:08;6.30;;;5.57;;
3726;SDS011;1879;45.876;12.300;2022-07-29T00:49:36;5.90;;;5.40;;
3726;SDS011;1879;45.876;12.300;2022-07-29T00:52:05;6.53;;;5.83;;
3726;SDS011;1879;45.876;12.300;2022-07-29T00:54:33;6.60;;;6.00;;
3726;SDS011;1879;45.876;12.300;2022-07-29T00:57:01;7.67;;;6.00;;
3726;SDS011;1879;45.876;12.300;2022-07-29T00:59:28;6.53;;;5.47;;
3726;SDS011;1879;45.876;12.300;2022-07-29T01:01:55;7.13;;;6.03;;
3726;SDS011;1879;45.876;12.300;2022-07-29T01:04:24;6.40;;;5.80;;
3726;SDS011;1879;45.876;12.300;2022-07-29T01:06:52;5.97;;;5.40;;
3726;SDS011;1879;45.876;12.300;2022-07-29T01:09:20;5.70;;;5.20;;
3726;SDS011;1879;45.876;12.300;2022-07-29T01:11:48;6.83;;;6.20;;
3726;SDS011;1879;45.876;12.300;2022-07-29T01:14:16;6.60;;;6.00;;
3726;SDS011;1879;45.876;12.300;2022-07-29T01:16:45;5.70;;;5.30;;
3726;SDS011;1879;45.876;12.300;2022-07-29T01:19:19;5.97;;;5.37;;
3726;SDS011;1879;45.876;12.300;2022-07-29T01:21:59;5.87;;;5.37;;
3726;SDS011;1879;45.876;12.300;2022-07-29T01:24:53;6.30;;;5.70;;
3726;SDS011;1879;45.876;12.300;2022-07-29T01:27:38;6.53;;;5.93;;
3726;SDS011;1879;45.876;12.300;2022-07-29T01:30:28;6.80;;;6.10;;
3726;SDS011;1879;45.876;12.300;2022-07-29T01:33:00;6.27;;;5.73;;
3726;SDS011;1879;45.876;12.300;2022-07-29T01:35:33;6.17;;;5.60;;
3726;SDS011;1879;45.876;12.300;2022-07-29T01:38:05;5.90;;;5.40;;
3726;SDS011;1879;45.876;12.300;2022-07-29T01:40:36;6.43;;;5.30;;
3726;SDS011;1879;45.876;12.300;2022-07-29T01:43:12;5.60;;;5.10;;
3726;SDS011;1879;45.876;12.300;2022-07-29T01:45:45;5.67;;;5.17;;
3726;SDS011;1879;45.876;12.300;2022-07-29T01:48:18;6.23;;;5.57;;
3726;SDS011;1879;45.876;12.300;2022-07-29T01:50:49;6.23;;;5.67;;
3726;SDS011;1879;45.876;12.300;2022-07-29T01:53:23;6.63;;;5.57;;
3726;SDS011;1879;45.876;12.300;2022-07-29T01:55:52;6.97;;;5.47;;
3726;SDS011;1879;45.876;12.300;2022-07-29T01:58:21;6.43;;;5.83;;
3726;SDS011;1879;45.876;12.300;2022-07-29T02:00:50;6.70;;;6.00;;
3726;SDS011;1879;45.876;12.300;2022-07-29T02:03:19;6.03;;;5.50;;
3726;SDS011;1879;45.876;12.300;2022-07-29T02:05:48;6.43;;;5.57;;
3726;SDS011;1879;45.876;12.300;2022-07-29T02:08:17;6.77;;;6.07;;
3726;SDS011;1879;45.876;12.300;2022-07-29T02:10:45;5.80;;;5.30;;
3726;SDS011;1879;45.876;12.300;2022-07-29T02:13:14;6.43;;;5.17;;
3726;SDS011;1879;45.876;12.300;2022-07-29T02:15:43;7.13;;;5.63;;
3726;SDS011;1879;45.876;12.300;2022-07-29T02:18:15;5.33;;;4.83;;
3726;SDS011;1879;45.876;12.300;2022-07-29T02:20:44;6.23;;;5.63;;
3726;SDS011;1879;45.876;12.300;2022-07-29T02:23:14;5.90;;;5.37;;
3726;SDS011;1879;45.876;12.300;2022-07-29T02:25:45;4.97;;;4.53;;
3726;SDS011;1879;45.876;12.300;2022-07-29T02:28:15;5.40;;;5.00;;
3726;SDS011;1879;45.876;12.300;2022-07-29T02:30:43;5.07;;;4.57;;
3726;SDS011;1879;45.876;12.300;2022-07-29T02:33:12;4.77;;;4.40;;
3726;SDS011;1879;45.876;12.300;2022-07-29T02:35:43;4.80;;;4.40;;
3726;SDS011;1879;45.876;12.300;2022-07-29T02:38:13;5.10;;;4.60;;
3726;SDS011;1879;45.876;12.300;2022-07-29T02:41:00;4.17;;;3.77;;
3726;SDS011;1879;45.876;12.300;2022-07-29T02:43:29;4.20;;;3.80;;
3726;SDS011;1879;45.876;12.300;2022-07-29T02:45:58;4.43;;;4.03;;
3726;SDS011;1879;45.876;12.300;2022-07-29T02:48:31;4.53;;;4.13;;
3726;SDS011;1879;45.876;12.300;2022-07-29T02:51:05;4.40;;;4.00;;
3726;SDS011;1879;45.876;12.300;2022-07-29T02:53:38;4.80;;;4.40;;
3726;SDS011;1879;45.876;12.300;2022-07-29T02:56:08;4.30;;;3.97;;
3726;SDS011;1879;45.876;12.300;2022-07-29T02:58:40;5.83;;;4.50;;
3726;SDS011;1879;45.876;12.300;2022-07-29T03:01:12;6.40;;;4.57;;
3726;SDS011;1879;45.876;12.300;2022-07-29T03:03:44;4.93;;;4.50;;
3726;SDS011;1879;45.876;12.300;2022-07-29T03:06:13;4.90;;;4.50;;
3726;SDS011;1879;45.876;12.300;2022-07-29T03:08:41;4.80;;;4.50;;
3726;SDS011;1879;45.876;12.300;2022-07-29T03:11:09;5.03;;;4.53;;
3726;SDS011;1879;45.876;12.300;2022-07-29T03:13:37;4.93;;;4.43;;
3726;SDS011;1879;45.876;12.300;2022-07-29T03:16:05;4.60;;;4.20;;
3726;SDS011;1879;45.876;12.300;2022-07-29T03:18:33;4.63;;;4.10;;
3726;SDS011;1879;45.876;12.300;2022-07-29T03:21:02;4.03;;;3.73;;
3726;SDS011;1879;45.876;12.300;2022-07-29T03:23:30;4.60;;;4.13;;
3726;SDS011;1879;45.876;12.300;2022-07-29T03:25:57;4.70;;;4.30;;
3726;SDS011;1879;45.876;12.300;2022-07-29T03:28:24;4.30;;;4.00;;
3726;SDS011;1879;45.876;12.300;2022-07-29T03:30:52;4.40;;;3.63;;
3726;SDS011;1879;45.876;12.300;2022-07-29T03:33:20;5.50;;;4.50;;
3726;SDS011;1879;45.876;12.300;2022-07-29T03:35:47;4.37;;;3.97;;
3726;SDS011;1879;45.876;12.300;2022-07-29T03:38:15;4.90;;;4.43;;
3726;SDS011;1879;45.876;12.300;2022-07-29T03:40:44;5.03;;;3.93;;
3726;SDS011;1879;45.876;12.300;2022-07-29T03:43:15;4.07;;;3.67;;
3726;SDS011;1879;45.876;12.300;2022-07-29T03:45:45;4.30;;;3.90;;
3726;SDS011;1879;45.876;12.300;2022-07-29T03:48:16;5.03;;;4.53;;
3726;SDS011;1879;45.876;12.300;2022-07-29T03:50:46;4.20;;;3.80;;
3726;SDS011;1879;45.876;12.300;2022-07-29T03:53:15;5.50;;;4.00;;
3726;SDS011;1879;45.876;12.300;2022-07-29T03:55:43;5.93;;;4.30;;
3726;SDS011;1879;45.876;12.300;2022-07-29T03:58:12;4.70;;;4.20;;
3726;SDS011;1879;45.876;12.300;2022-07-29T04:00:41;4.70;;;4.20;;
3726;SDS011;1879;45.876;12.300;2022-07-29T04:03:09;3.80;;;3.50;;
3726;SDS011;1879;45.876;12.300;2022-07-29T04:05:36;4.70;;;4.30;;
3726;SDS011;1879;45.876;12.300;2022-07-29T04:08:03;4.70;;;4.30;;
3726;SDS011;1879;45.876;12.300;2022-07-29T04:10:33;5.73;;;4.70;;
3726;SDS011;1879;45.876;12.300;2022-07-29T04:13:00;4.77;;;4.37;;
3726;SDS011;1879;45.876;12.300;2022-07-29T04:15:27;5.10;;;4.60;;
3726;SDS011;1879;45.876;12.300;2022-07-29T04:17:54;4.47;;;4.07;;
3726;SDS011;1879;45.876;12.300;2022-07-29T04:20:21;4.83;;;4.10;;
3726;SDS011;1879;45.876;12.300;2022-07-29T04:22:48;4.13;;;3.83;;
3726;SDS011;1879;45.876;12.300;2022-07-29T04:25:15;4.67;;;4.10;;
3726;SDS011;1879;45.876;12.300;2022-07-29T04:27:43;5.00;;;4.50;;
3726;SDS011;1879;45.876;12.300;2022-07-29T04:30:24;4.47;;;4.07;;
3726;SDS011;1879;45.876;12.300;2022-07-29T04:32:51;4.10;;;3.80;;
3726;SDS011;1879;45.876;12.300;2022-07-29T04:35:19;4.33;;;3.83;;
3726;SDS011;1879;45.876;12.300;2022-07-29T04:37:46;5.00;;;4.30;;
3726;SDS011;1879;45.876;12.300;2022-07-29T04:40:13;5.00;;;4.13;;
3726;SDS011;1879;45.876;12.300;2022-07-29T04:42:40;3.90;;;3.60;;
3726;SDS011;1879;45.876;12.300;2022-07-29T04:45:09;4.97;;;4.47;;
3726;SDS011;1879;45.876;12.300;2022-07-29T04:47:36;4.00;;;3.67;;
3726;SDS011;1879;45.876;12.300;2022-07-29T04:50:03;5.00;;;4.20;;
3726;SDS011;1879;45.876;12.300;2022-07-29T04:52:32;4.23;;;3.87;;
3726;SDS011;1879;45.876;12.300;2022-07-29T04:54:59;4.30;;;4.00;;
3726;SDS011;1879;45.876;12.300;2022-07-29T04:57:26;4.00;;;3.70;;
3726;SDS011;1879;45.876;12.300;2022-07-29T04:59:53;4.20;;;3.90;;
3726;SDS011;1879;45.876;12.300;2022-07-29T05:02:22;3.90;;;3.60;;
3726;SDS011;1879;45.876;12.300;2022-07-29T05:04:49;4.77;;;3.97;;
3726;SDS011;1879;45.876;12.300;2022-07-29T05:07:16;3.60;;;3.30;;
3726;SDS011;1879;45.876;12.300;2022-07-29T05:09:43;4.40;;;4.00;;
3726;SDS011;1879;45.876;12.300;2022-07-29T05:12:10;3.60;;;3.07;;
3726;SDS011;1879;45.876;12.300;2022-07-29T05:14:37;3.20;;;2.90;;
3726;SDS011;1879;45.876;12.300;2022-07-29T05:17:04;4.30;;;3.83;;
3726;SDS011;1879;45.876;12.300;2022-07-29T05:19:32;3.40;;;3.10;;
3726;SDS011;1879;45.876;12.300;2022-07-29T05:21:59;3.10;;;2.90;;
3726;SDS011;1879;45.876;12.300;2022-07-29T05:24:26;3.53;;;3.23;;
3726;SDS011;1879;45.876;12.300;2022-07-29T05:26:53;3.43;;;3.03;;
3726;SDS011;1879;45.876;12.300;2022-07-29T05:29:20;3.17;;;2.97;;
3726;SDS011;1879;45.876;12.300;2022-07-29T05:31:47;3.37;;;3.07;;
3726;SDS011;1879;45.876;12.300;2022-07-29T05:34:14;4.70;;;3.10;;
3726;SDS011;1879;45.876;12.300;2022-07-29T05:36:43;3.47;;;2.90;;
3726;SDS011;1879;45.876;12.300;2022-07-29T05:39:10;3.43;;;3.13;;
3726;SDS011;1879;45.876;12.300;2022-07-29T05:41:38;5.17;;;3.37;;
3726;SDS011;1879;45.876;12.300;2022-07-29T05:44:05;3.73;;;3.23;;
3726;SDS011;1879;45.876;12.300;2022-07-29T05:46:32;3.80;;;3.17;;
3726;SDS011;1879;45.876;12.300;2022-07-29T05:48:59;3.40;;;3.10;;
3726;SDS011;1879;45.876;12.300;2022-07-29T05:51:27;3.53;;;3.23;;
3726;SDS011;1879;45.876;12.300;2022-07-29T05:53:56;4.77;;;3.33;;
3726;SDS011;1879;45.876;12.300;2022-07-29T05:56:23;4.07;;;3.10;;
3726;SDS011;1879;45.876;12.300;2022-07-29T05:58:50;3.73;;;3.43;;
3726;SDS011;1879;45.876;12.300;2022-07-29T06:01:18;3.93;;;3.23;;
3726;SDS011;1879;45.876;12.300;2022-07-29T06:03:45;3.27;;;2.97;;
3726;SDS011;1879;45.876;12.300;2022-07-29T06:06:12;4.53;;;3.17;;
3726;SDS011;1879;45.876;12.300;2022-07-29T06:08:39;3.33;;;3.10;;
3726;SDS011;1879;45.876;12.300;2022-07-29T06:11:07;3.13;;;2.87;;
3726;SDS011;1879;45.876;12.300;2022-07-29T06:13:34;3.80;;;3.50;;
3726;SDS011;1879;45.876;12.300;2022-07-29T06:16:01;3.50;;;3.20;;
3726;SDS011;1879;45.876;12.300;2022-07-29T06:18:29;3.10;;;2.83;;
3726;SDS011;1879;45.876;12.300;2022-07-29T06:20:56;3.20;;;2.90;;
3726;SDS011;1879;45.876;12.300;2022-07-29T06:23:23;3.50;;;3.20;;
3726;SDS011;1879;45.876;12.300;2022-07-29T06:25:50;3.20;;;3.00;;
3726;SDS011;1879;45.876;12.300;2022-07-29T06:28:18;3.70;;;3.40;;
3726;SDS011;1879;45.876;12.300;2022-07-29T06:30:45;3.53;;;3.23;;
3726;SDS011;1879;45.876;12.300;2022-07-29T06:33:15;3.90;;;3.50;;
3726;SDS011;1879;45.876;12.300;2022-07-29T06:35:43;3.33;;;2.90;;
3726;SDS011;1879;45.876;12.300;2022-07-29T06:38:12;3.30;;;3.00;;
3726;SDS011;1879;45.876;12.300;2022-07-29T06:40:40;3.17;;;2.70;;
3726;SDS011;1879;45.876;12.300;2022-07-29T06:43:28;4.37;;;3.37;;
3726;SDS011;1879;45.876;12.300;2022-07-29T06:45:59;4.63;;;2.80;;
3726;SDS011;1879;45.876;12.300;2022-07-29T06:48:27;3.17;;;2.97;;
3726;SDS011;1879;45.876;12.300;2022-07-29T06:50:54;3.53;;;3.23;;
3726;SDS011;1879;45.876;12.300;2022-07-29T06:53:21;3.50;;;3.20;;
3726;SDS011;1879;45.876;12.300;2022-07-29T06:55:49;3.10;;;2.80;;
3726;SDS011;1879;45.876;12.300;2022-07-29T06:58:16;3.17;;;2.97;;
3726;SDS011;1879;45.876;12.300;2022-07-29T07:00:46;3.17;;;2.90;;
3726;SDS011;1879;45.876;12.300;2022-07-29T07:03:14;3.30;;;3.00;;
3726;SDS011;1879;45.876;12.300;2022-07-29T07:05:41;3.40;;;3.07;;
3726;SDS011;1879;45.876;12.300;2022-07-29T07:08:09;3.23;;;2.93;;
3726;SDS011;1879;45.876;12.300;2022-07-29T07:10:36;3.70;;;3.13;;
3726;SDS011;1879;45.876;12.300;2022-07-29T07:13:03;3.33;;;3.03;;
3726;SDS011;1879;45.876;12.300;2022-07-29T07:15:31;3.33;;;3.03;;
3726;SDS011;1879;45.876;12.300;2022-07-29T07:17:59;3.57;;;3.27;;
3726;SDS011;1879;45.876;12.300;2022-07-29T07:20:26;3.83;;;3.53;;
3726;SDS011;1879;45.876;12.300;2022-07-29T07:22:53;3.80;;;3.50;;
3726;SDS011;1879;45.876;12.300;2022-07-29T07:25:21;4.20;;;3.70;;
3726;SDS011;1879;45.876;12.300;2022-07-29T07:27:48;4.20;;;3.70;;
3726;SDS011;1879;45.876;12.300;2022-07-29T07:30:15;4.70;;;3.70;;
3726;SDS011;1879;45.876;12.300;2022-07-29T07:32:42;3.90;;;3.50;;
3726;SDS011;1879;45.876;12.300;2022-07-29T07:35:11;3.93;;;3.60;;
3726;SDS011;1879;45.876;12.300;2022-07-29T07:37:38;3.83;;;3.53;;
3726;SDS011;1879;45.876;12.300;2022-07-29T07:40:07;3.57;;;3.27;;
3726;SDS011;1879;45.876;12.300;2022-07-29T07:42:36;5.07;;;3.70;;
3726;SDS011;1879;45.876;12.300;2022-07-29T07:45:04;4.00;;;3.70;;
3726;SDS011;1879;45.876;12.300;2022-07-29T07:47:32;4.43;;;3.40;;
3726;SDS011;1879;45.876;12.300;2022-07-29T07:49:59;4.03;;;3.73;;
3726;SDS011;1879;45.876;12.300;2022-07-29T07:52:27;4.23;;;3.83;;
3726;SDS011;1879;45.876;12.300;2022-07-29T07:54:54;4.10;;;3.70;;
3726;SDS011;1879;45.876;12.300;2022-07-29T07:57:21;3.70;;;3.40;;
3726;SDS011;1879;45.876;12.300;2022-07-29T07:59:48;3.77;;;3.37;;
3726;SDS011;1879;45.876;12.300;2022-07-29T08:02:15;4.70;;;4.30;;
3726;SDS011;1879;45.876;12.300;2022-07-29T08:04:42;5.10;;;3.37;;
3726;SDS011;1879;45.876;12.300;2022-07-29T08:07:09;4.00;;;3.70;;
3726;SDS011;1879;45.876;12.300;2022-07-29T08:09:38;3.50;;;3.30;;
3726;SDS011;1879;45.876;12.300;2022-07-29T08:12:05;3.60;;;3.30;;
3726;SDS011;1879;45.876;12.300;2022-07-29T08:14:32;4.13;;;3.80;;
3726;SDS011;1879;45.876;12.300;2022-07-29T08:16:59;3.93;;;3.63;;
3726;SDS011;1879;45.876;12.300;2022-07-29T08:19:26;4.37;;;3.97;;
3726;SDS011;1879;45.876;12.300;2022-07-29T08:21:53;5.23;;;3.77;;
3726;SDS011;1879;45.876;12.300;2022-07-29T08:24:20;3.80;;;3.40;;
3726;SDS011;1879;45.876;12.300;2022-07-29T08:27:06;5.90;;;4.37;;
3726;SDS011;1879;45.876;12.300;2022-07-29T08:29:33;4.07;;;3.67;;
3726;SDS011;1879;45.876;12.300;2022-07-29T08:32:00;4.10;;;3.63;;
3726;SDS011;1879;45.876;12.300;2022-07-29T08:34:27;4.00;;;3.70;;
3726;SDS011;1879;45.876;12.300;2022-07-29T08:36:55;4.93;;;3.77;;
3726;SDS011;1879;45.876;12.300;2022-07-29T08:39:22;5.37;;;4.00;;
3726;SDS011;1879;45.876;12.300;2022-07-29T08:41:49;6.70;;;3.80;;
3726;SDS011;1879;45.876;12.300;2022-07-29T08:44:18;4.83;;;4.33;;
3726;SDS011;1879;45.876;12.300;2022-07-29T08:46:46;4.33;;;3.93;;
3726;SDS011;1879;45.876;12.300;2022-07-29T08:49:14;6.57;;;3.63;;
3726;SDS011;1879;45.876;12.300;2022-07-29T08:51:41;3.97;;;2.90;;
3726;SDS011;1879;45.876;12.300;2022-07-29T08:54:09;3.90;;;3.50;;
3726;SDS011;1879;45.876;12.300;2022-07-29T08:56:37;4.00;;;3.37;;
3726;SDS011;1879;45.876;12.300;2022-07-29T08:59:06;4.20;;;3.90;;
3726;SDS011;1879;45.876;12.300;2022-07-29T09:01:37;4.77;;;3.90;;
3726;SDS011;1879;45.876;12.300;2022-07-29T09:04:06;3.00;;;2.80;;
3726;SDS011;1879;45.876;12.300;2022-07-29T09:06:37;3.83;;;3.53;;
3726;SDS011;1879;45.876;12.300;2022-07-29T09:09:09;4.00;;;3.70;;
3726;SDS011;1879;45.876;12.300;2022-07-29T09:11:36;4.00;;;3.60;;
3726;SDS011;1879;45.876;12.300;2022-07-29T09:14:04;4.30;;;3.90;;
3726;SDS011;1879;45.876;12.300;2022-07-29T09:16:45;4.20;;;3.40;;
3726;SDS011;1879;45.876;12.300;2022-07-29T09:19:28;4.07;;;3.67;;
3726;SDS011;1879;45.876;12.300;2022-07-29T09:21:57;3.63;;;3.23;;
3726;SDS011;1879;45.876;12.300;2022-07-29T09:27:09;3.93;;;3.63;;
3726;SDS011;1879;45.876;12.300;2022-07-29T09:29:43;4.13;;;3.80;;
3726;SDS011;1879;45.876;12.300;2022-07-29T09:32:12;3.43;;;3.20;;
3726;SDS011;1879;45.876;12.300;2022-07-29T09:34:39;3.50;;;3.30;;
3726;SDS011;1879;45.876;12.300;2022-07-29T09:37:06;4.00;;;3.60;;
3726;SDS011;1879;45.876;12.300;2022-07-29T09:39:34;3.33;;;2.90;;
3726;SDS011;1879;45.876;12.300;2022-07-29T09:42:03;3.27;;;2.97;;
3726;SDS011;1879;45.876;12.300;2022-07-29T09:44:41;3.33;;;3.03;;
3726;SDS011;1879;45.876;12.300;2022-07-29T09:47:10;3.50;;;3.20;;
3726;SDS011;1879;45.876;12.300;2022-07-29T09:49:51;3.53;;;3.03;;
3726;SDS011;1879;45.876;12.300;2022-07-29T09:52:19;3.00;;;2.70;;
3726;SDS011;1879;45.876;12.300;2022-07-29T09:54:47;3.67;;;3.37;;
3726;SDS011;1879;45.876;12.300;2022-07-29T09:57:21;13.80;;;4.13;;
3726;SDS011;1879;45.876;12.300;2022-07-29T09:59:55;4.20;;;3.70;;
3726;SDS011;1879;45.876;12.300;2022-07-29T10:02:28;4.90;;;4.43;;
3726;SDS011;1879;45.876;12.300;2022-07-29T10:04:57;4.90;;;4.50;;
3726;SDS011;1879;45.876;12.300;2022-07-29T10:07:25;4.17;;;3.77;;
3726;SDS011;1879;45.876;12.300;2022-07-29T10:09:53;3.97;;;3.57;;
3726;SDS011;1879;45.876;12.300;2022-07-29T10:12:21;5.40;;;3.50;;
3726;SDS011;1879;45.876;12.300;2022-07-29T10:14:49;4.00;;;3.70;;
3726;SDS011;1879;45.876;12.300;2022-07-29T10:17:17;3.97;;;3.57;;
3726;SDS011;1879;45.876;12.300;2022-07-29T10:19:46;4.40;;;4.00;;
3726;SDS011;1879;45.876;12.300;2022-07-29T10:22:15;4.37;;;4.00;;
3726;SDS011;1879;45.876;12.300;2022-07-29T10:24:42;7.83;;;3.77;;
3726;SDS011;1879;45.876;12.300;2022-07-29T10:27:09;3.83;;;3.53;;
3726;SDS011;1879;45.876;12.300;2022-07-29T10:29:37;3.93;;;3.53;;
3726;SDS011;1879;45.876;12.300;2022-07-29T10:32:09;3.47;;;3.17;;
3726;SDS011;1879;45.876;12.300;2022-07-29T10:34:54;3.80;;;3.50;;
3726;SDS011;1879;45.876;12.300;2022-07-29T10:37:33;4.83;;;3.40;;
3726;SDS011;1879;45.876;12.300;2022-07-29T10:40:15;4.10;;;3.80;;
3726;SDS011;1879;45.876;12.300;2022-07-29T10:43:14;4.10;;;3.70;;
3726;SDS011;1879;45.876;12.300;2022-07-29T10:45:45;4.00;;;3.70;;
3726;SDS011;1879;45.876;12.300;2022-07-29T10:48:14;3.97;;;3.67;;
3726;SDS011;1879;45.876;12.300;2022-07-29T10:50:53;4.00;;;3.60;;
3726;SDS011;1879;45.876;12.300;2022-07-29T10:53:21;4.10;;;3.80;;
3726;SDS011;1879;45.876;12.300;2022-07-29T10:55:49;4.10;;;3.50;;
3726;SDS011;1879;45.876;12.300;2022-07-29T10:58:18;4.47;;;4.07;;
3726;SDS011;1879;45.876;12.300;2022-07-29T11:00:46;4.70;;;4.30;;
3726;SDS011;1879;45.876;12.300;2022-07-29T11:06:18;4.47;;;3.70;;
3726;SDS011;1879;45.876;12.300;2022-07-29T11:08:45;3.43;;;2.97;;
3726;SDS011;1879;45.876;12.300;2022-07-29T11:11:42;4.93;;;4.00;;
3726;SDS011;1879;45.876;12.300;2022-07-29T11:14:09;3.90;;;3.60;;
3726;SDS011;1879;45.876;12.300;2022-07-29T11:19:25;4.60;;;4.07;;
3726;SDS011;1879;45.876;12.300;2022-07-29T11:21:53;4.80;;;4.07;;
3726;SDS011;1879;45.876;12.300;2022-07-29T11:24:21;4.93;;;3.80;;
3726;SDS011;1879;45.876;12.300;2022-07-29T11:29:57;4.17;;;3.87;;
3726;SDS011;1879;45.876;12.300;2022-07-29T11:32:35;3.90;;;3.60;;
3726;SDS011;1879;45.876;12.300;2022-07-29T11:35:13;3.60;;;3.30;;
3726;SDS011;1879;45.876;12.300;2022-07-29T11:37:43;4.10;;;3.80;;
3726;SDS011;1879;45.876;12.300;2022-07-29T11:40:15;3.97;;;3.67;;
3726;SDS011;1879;45.876;12.300;2022-07-29T11:42:44;4.37;;;3.67;;
3726;SDS011;1879;45.876;12.300;2022-07-29T11:45:25;3.53;;;3.23;;
3726;SDS011;1879;45.876;12.300;2022-07-29T11:47:58;3.50;;;3.20;;
3726;SDS011;1879;45.876;12.300;2022-07-29T11:50:27;3.60;;;3.10;;
3726;SDS011;1879;45.876;12.300;2022-07-29T11:52:57;3.97;;;3.67;;
3726;SDS011;1879;45.876;12.300;2022-07-29T11:55:25;3.50;;;3.20;;
3726;SDS011;1879;45.876;12.300;2022-07-29T11:57:53;6.10;;;3.23;;
3726;SDS011;1879;45.876;12.300;2022-07-29T12:00:23;3.53;;;3.23;;
3726;SDS011;1879;45.876;12.300;2022-07-29T12:02:52;3.60;;;3.30;;
3726;SDS011;1879;45.876;12.300;2022-07-29T12:05:20;3.80;;;3.50;;
3726;SDS011;1879;45.876;12.300;2022-07-29T12:07:47;4.43;;;3.20;;
3726;SDS011;1879;45.876;12.300;2022-07-29T12:10:16;3.70;;;3.40;;
3726;SDS011;1879;45.876;12.300;2022-07-29T12:12:43;4.40;;;3.70;;
3726;SDS011;1879;45.876;12.300;2022-07-29T12:15:18;3.57;;;3.27;;
3726;SDS011;1879;45.876;12.300;2022-07-29T12:17:46;5.07;;;3.57;;
3726;SDS011;1879;45.876;12.300;2022-07-29T12:20:13;4.00;;;3.60;;
3726;SDS011;1879;45.876;12.300;2022-07-29T12:22:49;5.63;;;3.90;;
3726;SDS011;1879;45.876;12.300;2022-07-29T12:25:20;3.47;;;3.23;;
3726;SDS011;1879;45.876;12.300;2022-07-29T12:27:57;3.50;;;3.30;;
3726;SDS011;1879;45.876;12.300;2022-07-29T12:30:34;3.70;;;3.40;;
3726;SDS011;1879;45.876;12.300;2022-07-29T12:33:10;3.63;;;3.23;;
3726;SDS011;1879;45.876;12.300;2022-07-29T12:35:42;3.40;;;3.10;;
3726;SDS011;1879;45.876;12.300;2022-07-29T12:38:12;3.33;;;3.03;;
3726;SDS011;1879;45.876;12.300;2022-07-29T12:40:41;6.17;;;3.43;;
3726;SDS011;1879;45.876;12.300;2022-07-29T12:43:10;3.70;;;3.40;;
3726;SDS011;1879;45.876;12.300;2022-07-29T12:45:39;3.07;;;2.87;;
3726;SDS011;1879;45.876;12.300;2022-07-29T12:48:07;3.40;;;3.10;;
3726;SDS011;1879;45.876;12.300;2022-07-29T12:50:35;3.93;;;3.40;;
3726;SDS011;1879;45.876;12.300;2022-07-29T12:53:09;5.30;;;3.20;;
3726;SDS011;1879;45.876;12.300;2022-07-29T12:55:39;3.30;;;3.00;;
3726;SDS011;1879;45.876;12.300;2022-07-29T12:58:09;3.50;;;3.20;;
3726;SDS011;1879;45.876;12.300;2022-07-29T13:00:36;3.77;;;3.47;;
3726;SDS011;1879;45.876;12.300;2022-07-29T13:03:03;4.00;;;3.70;;
3726;SDS011;1879;45.876;12.300;2022-07-29T13:05:40;3.50;;;3.20;;
3726;SDS011;1879;45.876;12.300;2022-07-29T13:08:12;3.30;;;3.10;;
3726;SDS011;1879;45.876;12.300;2022-07-29T13:10:41;4.40;;;4.00;;
3726;SDS011;1879;45.876;12.300;2022-07-29T13:13:09;4.10;;;3.70;;
3726;SDS011;1879;45.876;12.300;2022-07-29T13:15:37;4.07;;;3.70;;
3726;SDS011;1879;45.876;12.300;2022-07-29T13:20:53;4.83;;;3.40;;
3726;SDS011;1879;45.876;12.300;2022-07-29T13:23:20;3.80;;;3.50;;
3726;SDS011;1879;45.876;12.300;2022-07-29T13:25:49;3.87;;;3.60;;
3726;SDS011;1879;45.876;12.300;2022-07-29T13:28:16;3.80;;;3.60;;
3726;SDS011;1879;45.876;12.300;2022-07-29T13:30:43;3.97;;;3.67;;
3726;SDS011;1879;45.876;12.300;2022-07-29T13:33:11;5.23;;;3.63;;
3726;SDS011;1879;45.876;12.300;2022-07-29T13:35:38;3.87;;;3.53;;
3726;SDS011;1879;45.876;12.300;2022-07-29T13:38:05;3.90;;;3.43;;
3726;SDS011;1879;45.876;12.300;2022-07-29T13:40:32;3.80;;;3.50;;
3726;SDS011;1879;45.876;12.300;2022-07-29T13:43:01;4.47;;;3.43;;
3726;SDS011;1879;45.876;12.300;2022-07-29T13:45:28;3.37;;;3.07;;
3726;SDS011;1879;45.876;12.300;2022-07-29T13:47:55;3.63;;;3.33;;
3726;SDS011;1879;45.876;12.300;2022-07-29T13:50:22;3.93;;;3.63;;
3726;SDS011;1879;45.876;12.300;2022-07-29T13:52:49;4.20;;;3.20;;
3726;SDS011;1879;45.876;12.300;2022-07-29T13:55:16;5.10;;;3.20;;
3726;SDS011;1879;45.876;12.300;2022-07-29T13:57:43;3.37;;;3.07;;
3726;SDS011;1879;45.876;12.300;2022-07-29T14:00:12;3.70;;;3.43;;
3726;SDS011;1879;45.876;12.300;2022-07-29T14:02:40;6.33;;;3.23;;
3726;SDS011;1879;45.876;12.300;2022-07-29T14:05:07;3.37;;;3.07;;
3726;SDS011;1879;45.876;12.300;2022-07-29T14:07:35;4.50;;;3.20;;
3726;SDS011;1879;45.876;12.300;2022-07-29T14:10:04;3.13;;;2.93;;
3726;SDS011;1879;45.876;12.300;2022-07-29T14:12:31;3.70;;;3.27;;
3726;SDS011;1879;45.876;12.300;2022-07-29T14:14:58;3.60;;;3.30;;
3726;SDS011;1879;45.876;12.300;2022-07-29T14:17:27;3.40;;;3.10;;
3726;SDS011;1879;45.876;12.300;2022-07-29T14:19:54;3.00;;;2.80;;
3726;SDS011;1879;45.876;12.300;2022-07-29T14:22:21;4.50;;;3.70;;
3726;SDS011;1879;45.876;12.300;2022-07-29T14:24:49;3.40;;;2.67;;
3726;SDS011;1879;45.876;12.300;2022-07-29T14:27:16;3.03;;;2.83;;
3726;SDS011;1879;45.876;12.300;2022-07-29T14:29:43;3.87;;;3.20;;
3726;SDS011;1879;45.876;12.300;2022-07-29T14:32:10;3.57;;;3.27;;
3726;SDS011;1879;45.876;12.300;2022-07-29T14:34:40;3.37;;;2.70;;
3726;SDS011;1879;45.876;12.300;2022-07-29T14:37:07;3.50;;;2.97;;
3726;SDS011;1879;45.876;12.300;2022-07-29T14:39:34;4.40;;;3.10;;
3726;SDS011;1879;45.876;12.300;2022-07-29T14:42:02;3.43;;;3.23;;
3726;SDS011;1879;45.876;12.300;2022-07-29T14:44:29;3.10;;;2.90;;
3726;SDS011;1879;45.876;12.300;2022-07-29T14:46:57;5.20;;;3.43;;
3726;SDS011;1879;45.876;12.300;2022-07-29T14:49:25;4.23;;;3.83;;
3726;SDS011;1879;45.876;12.300;2022-07-29T14:51:53;4.10;;;3.70;;
3726;SDS011;1879;45.876;12.300;2022-07-29T14:54:20;4.40;;;3.43;;
3726;SDS011;1879;45.876;12.300;2022-07-29T14:56:48;4.80;;;3.10;;
3726;SDS011;1879;45.876;12.300;2022-07-29T14:59:16;3.30;;;3.10;;
3726;SDS011;1879;45.876;12.300;2022-07-29T15:01:43;3.87;;;3.57;;
3726;SDS011;1879;45.876;12.300;2022-07-29T15:04:10;3.97;;;3.43;;
3726;SDS011;1879;45.876;12.300;2022-07-29T15:06:37;4.80;;;3.80;;
3726;SDS011;1879;45.876;12.300;2022-07-29T15:09:06;4.13;;;3.83;;
3726;SDS011;1879;45.876;12.300;2022-07-29T15:11:33;7.03;;;3.97;;
3726;SDS011;1879;45.876;12.300;2022-07-29T15:14:00;6.90;;;3.50;;
3726;SDS011;1879;45.876;12.300;2022-07-29T15:16:27;4.07;;;3.77;;
3726;SDS011;1879;45.876;12.300;2022-07-29T15:18:54;5.00;;;3.80;;
3726;SDS011;1879;45.876;12.300;2022-07-29T15:21:22;3.80;;;3.47;;
3726;SDS011;1879;45.876;12.300;2022-07-29T15:23:49;4.63;;;3.63;;
3726;SDS011;1879;45.876;12.300;2022-07-29T15:26:18;3.90;;;3.60;;